createdAt,value
2018-09-02T00:03:45.950Z,7.13
2018-09-02T00:08:40.478Z,7.30
2018-09-02T00:13:34.988Z,6.57
2018-09-02T00:18:29.552Z,5.93
2018-09-02T00:39:39.188Z,4.50
2018-09-02T00:44:33.671Z,4.30
2018-09-02T00:49:28.183Z,4.87
2018-09-02T00:54:22.756Z,4.43
2018-09-02T00:59:17.291Z,5.30
2018-09-02T01:04:11.800Z,4.60
2018-09-02T01:09:08.105Z,5.27
2018-09-02T01:30:16.566Z,4.63
2018-09-02T01:35:15.132Z,4.83
2018-09-02T01:40:09.669Z,4.80
2018-09-02T01:45:04.336Z,5.17
2018-09-02T01:49:58.828Z,4.77
2018-09-02T01:54:53.297Z,5.07
2018-09-02T02:16:02.725Z,5.60
2018-09-02T02:20:57.167Z,5.80
2018-09-02T02:25:51.624Z,5.83
2018-09-02T02:30:46.120Z,6.10
2018-09-02T02:35:40.620Z,6.60
2018-09-02T02:40:35.108Z,6.83
2018-09-02T02:45:29.598Z,5.53
2018-09-02T03:06:38.731Z,7.03
2018-09-02T03:11:33.245Z,7.10
2018-09-02T03:16:27.722Z,7.03
2018-09-02T03:21:22.237Z,7.73
2018-09-02T03:26:16.708Z,7.57
2018-09-02T03:31:11.184Z,6.53
2018-09-02T03:36:05.885Z,7.00
2018-09-02T03:57:14.395Z,7.33
2018-09-02T04:02:08.904Z,7.83
2018-09-02T04:07:03.392Z,8.23
2018-09-02T04:11:58.001Z,8.43
2018-09-02T04:16:52.495Z,8.67
2018-09-02T04:21:46.956Z,9.17
2018-09-02T04:26:41.454Z,8.20
2018-09-02T04:47:50.467Z,8.00
2018-09-02T04:52:44.965Z,8.47
2018-09-02T04:57:39.553Z,8.30
2018-09-02T05:02:34.024Z,8.00
2018-09-02T05:07:28.506Z,9.30
2018-09-02T05:12:23.008Z,8.60
2018-09-02T05:17:18.182Z,8.37
2018-09-02T05:38:27.468Z,7.47
2018-09-02T05:43:22.020Z,7.50
2018-09-02T05:48:16.496Z,7.67
2018-09-02T05:53:10.961Z,7.60
2018-09-02T05:58:05.481Z,7.33
2018-09-02T06:02:59.976Z,8.10
2018-09-02T06:07:56.045Z,9.60
2018-09-02T06:29:05.572Z,10.73
2018-09-02T06:34:00.043Z,10.37
2018-09-02T06:38:54.556Z,10.00
2018-09-02T06:43:49.105Z,10.53
2018-09-02T06:48:43.616Z,10.17
2018-09-02T06:53:38.120Z,11.30
2018-09-02T06:58:32.700Z,11.30
2018-09-02T07:19:40.809Z,11.17
2018-09-02T07:24:35.370Z,11.07
2018-09-02T07:29:29.951Z,7.73
2018-09-02T07:34:24.494Z,11.53
2018-09-02T07:39:19.055Z,11.80
2018-09-02T07:44:13.660Z,11.47
2018-09-02T07:49:08.097Z,11.23
2018-09-02T08:10:17.349Z,8.80
2018-09-02T08:15:11.842Z,8.53
2018-09-02T08:20:07.024Z,8.37
2018-09-02T08:25:01.536Z,7.20
2018-09-02T08:29:56.069Z,7.07
2018-09-02T08:34:50.556Z,6.53
2018-09-02T08:39:45.143Z,6.37
2018-09-02T09:00:55.060Z,5.10
2018-09-02T09:05:49.656Z,4.23
2018-09-02T09:10:44.175Z,3.97
2018-09-02T09:15:38.661Z,3.90
2018-09-02T09:20:33.170Z,3.43
2018-09-02T09:25:27.694Z,3.80
2018-09-02T09:30:22.304Z,3.10
2018-09-02T09:51:30.746Z,3.10
2018-09-02T09:56:25.328Z,2.47
2018-09-02T10:01:19.829Z,2.77
2018-09-02T10:06:14.393Z,2.27
2018-09-02T10:11:08.976Z,1.80
2018-09-02T10:16:03.510Z,2.27
2018-09-02T10:20:58.124Z,2.30
2018-09-02T10:42:07.697Z,2.50
2018-09-02T10:47:02.208Z,2.53
2018-09-02T10:51:56.720Z,2.60
2018-09-02T10:56:51.231Z,2.50
2018-09-02T11:01:45.733Z,2.53
2018-09-02T11:06:40.293Z,2.47
2018-09-02T11:11:34.858Z,2.40
2018-09-02T11:32:44.232Z,2.10
2018-09-02T11:37:38.735Z,1.93
2018-09-02T11:42:33.382Z,1.70
2018-09-02T11:47:28.107Z,2.03
2018-09-02T11:52:22.633Z,2.10
2018-09-02T11:57:17.160Z,1.70
2018-09-02T12:18:26.082Z,1.90
2018-09-02T12:23:20.781Z,1.87
2018-09-02T12:28:15.271Z,2.10
2018-09-02T12:33:09.771Z,2.10
2018-09-02T12:38:04.398Z,2.10
2018-09-02T12:42:58.976Z,2.20
2018-09-02T12:47:53.710Z,2.17
2018-09-02T13:09:02.661Z,2.60
2018-09-02T13:13:57.199Z,2.90
2018-09-02T13:18:51.741Z,3.30
2018-09-02T13:23:46.359Z,3.80
2018-09-02T13:28:40.904Z,3.70
2018-09-02T13:33:35.452Z,3.50
2018-09-02T13:38:30.073Z,3.33
2018-09-02T13:59:39.119Z,3.80
2018-09-02T14:04:33.593Z,5.10
2018-09-02T14:09:28.155Z,3.90
2018-09-02T14:14:22.640Z,4.30
2018-09-02T14:19:17.161Z,5.00
2018-09-02T14:24:11.693Z,5.10
2018-09-02T14:29:06.217Z,5.00
2018-09-02T14:50:15.437Z,6.43
2018-09-02T14:55:10.928Z,6.90
2018-09-02T15:00:05.735Z,6.70
2018-09-02T15:05:00.262Z,5.80
2018-09-02T15:09:54.816Z,6.10
2018-09-02T15:14:49.352Z,5.67
2018-09-02T15:19:44.056Z,5.57
2018-09-02T15:40:52.504Z,5.87
2018-09-02T15:45:47.057Z,6.07
2018-09-02T15:50:41.573Z,6.40
2018-09-02T15:55:36.076Z,6.57
2018-09-02T16:00:30.596Z,6.10
2018-09-02T16:05:25.188Z,6.50
2018-09-02T16:10:19.964Z,5.90
2018-09-02T16:31:29.364Z,8.97
2018-09-02T16:36:23.961Z,8.13
2018-09-02T16:41:18.517Z,8.63
2018-09-02T16:46:13.149Z,7.87
2018-09-02T16:51:07.704Z,9.03
2018-09-02T16:56:02.237Z,8.37
2018-09-02T17:00:56.858Z,8.80
2018-09-02T17:22:06.935Z,7.50
2018-09-02T17:27:01.451Z,8.20
2018-09-02T17:31:56.285Z,8.27
2018-09-02T17:36:51.008Z,8.60
2018-09-02T17:41:45.578Z,7.90
2018-09-02T17:46:40.100Z,8.27
2018-09-02T17:51:34.623Z,8.00
2018-09-02T18:12:43.353Z,6.63
2018-09-02T18:17:37.982Z,7.03
2018-09-02T18:22:32.645Z,7.27
2018-09-02T18:27:29.782Z,7.00
2018-09-02T18:32:24.378Z,6.73
2018-09-02T18:37:19.098Z,5.93
2018-09-02T18:42:13.698Z,6.90
2018-09-02T19:03:23.107Z,6.33
2018-09-02T19:08:17.642Z,6.93
2018-09-02T19:13:12.146Z,6.80
2018-09-02T19:18:06.788Z,7.17
2018-09-02T19:23:01.395Z,7.00
2018-09-02T19:27:55.923Z,6.40
2018-09-02T19:32:50.432Z,7.23
2018-09-02T19:53:59.578Z,7.30
2018-09-02T19:58:54.205Z,7.23
2018-09-02T20:03:48.728Z,8.13
2018-09-02T20:08:43.380Z,7.97
2018-09-02T20:13:37.880Z,6.70
2018-09-02T20:18:32.417Z,6.93
2018-09-02T20:23:26.969Z,6.70
2018-09-02T20:44:36.159Z,6.53
2018-09-02T20:49:30.672Z,6.83
2018-09-02T20:54:25.180Z,6.90
2018-09-02T20:59:19.662Z,7.00
2018-09-02T21:04:14.239Z,6.10
2018-09-02T21:09:12.699Z,7.07
2018-09-02T21:14:07.936Z,6.93
2018-09-02T21:35:16.845Z,6.97
2018-09-02T21:40:11.325Z,6.83
2018-09-02T21:45:05.892Z,7.20
2018-09-02T21:50:00.388Z,7.00
2018-09-02T21:54:54.876Z,6.80
2018-09-02T21:59:49.429Z,7.00
2018-09-02T22:20:59.096Z,6.70
2018-09-02T22:25:53.579Z,5.90
2018-09-02T22:30:48.128Z,6.83
2018-09-02T22:35:42.615Z,6.63
2018-09-02T22:40:37.103Z,6.60
2018-09-02T22:45:31.633Z,6.40
2018-09-02T22:50:26.140Z,6.77
2018-09-02T23:11:35.121Z,6.90
2018-09-02T23:16:29.624Z,7.07
2018-09-02T23:21:24.124Z,6.73
2018-09-02T23:26:18.625Z,6.27
2018-09-02T23:31:13.156Z,7.63
2018-09-02T23:36:07.652Z,7.63
2018-09-02T23:41:02.124Z,8.80
